Time;durP1;ratioP1;P1;durP2;ratioP2;P2;SDS_P1;SDS_P2;PMS_P1;PMS_P2;Temp;Humidity;BMP_temperature;BMP_pressure;BME280_temperature;BME280_humidity;BME280_pressure;Samples;Min_cycle;Max_cycle;Signal;HPM_P1;HPM_P2
2021/11/07 00:01:16;;;;;;;9.55;2.62;;;9.20;99.90;;;;;;6731914;88;21406;-79
2021/11/07 00:11:28;;;;;;;4.55;2.37;;;9.30;99.90;;;;;;6733490;88;20194;-78
2021/11/07 00:21:30;;;;;;;4.25;2.47;;;9.30;99.90;;;;;;6727097;88;20276;-77
2021/11/07 00:31:45;;;;;;;4.32;2.17;;;9.30;99.90;;;;;;6727037;88;20197;-78
2021/11/07 01:02:04;;;;;;;3.40;2.10;;;9.50;99.90;;;;;;6680403;89;20230;-81
2021/11/07 01:12:06;;;;;;;4.50;2.45;;;9.60;99.90;;;;;;6759031;87;20206;-82
2021/11/07 01:22:09;;;;;;;4.47;2.20;;;9.70;99.90;;;;;;6756656;88;20236;-82
2021/11/07 01:32:10;;;;;;;4.00;2.15;;;9.80;99.90;;;;;;6757091;88;20274;-82
2021/11/07 01:42:53;;;;;;;4.35;2.00;;;9.90;99.90;;;;;;6753973;88;20250;-81
2021/11/07 01:52:41;;;;;;;;;;;10.10;99.90;;;;;;6760268;88;20176;-81
2021/11/07 02:02:41;;;;;;;5.43;2.62;;;10.20;99.90;;;;;;6757897;88;20067;-82
2021/11/07 02:12:43;;;;;;;5.35;2.42;;;10.10;99.90;;;;;;6758540;88;20293;-81
2021/11/07 02:22:43;;;;;;;5.50;2.30;;;10.00;99.90;;;;;;6754926;88;20191;-82
2021/11/07 02:32:47;;;;;;;5.50;2.00;;;10.10;99.90;;;;;;6758097;88;20223;-82
2021/11/07 02:42:48;;;;;;;4.57;2.00;;;10.20;99.90;;;;;;6758137;88;20271;-82
2021/11/07 02:52:49;;;;;;;4.05;1.60;;;10.30;99.90;;;;;;6757791;88;20203;-82
2021/11/07 03:02:50;;;;;;;3.37;1.20;;;10.50;99.90;;;;;;6758709;88;20209;-82
2021/11/07 03:13:11;;;;;;;2.78;1.00;;;10.40;99.90;;;;;;6758177;88;20713;-83
2021/11/07 03:23:19;;;;;;;2.53;0.80;;;10.60;99.90;;;;;;6756552;88;20270;-82
2021/11/07 03:33:30;;;;;;;1.85;0.90;;;10.70;99.90;;;;;;6759043;88;20172;-80
2021/11/07 03:43:30;;;;;;;2.25;0.90;;;10.50;99.90;;;;;;6758794;88;20173;-80
2021/11/07 03:53:31;;;;;;;1.85;0.60;;;10.50;99.90;;;;;;6759109;88;20192;-80
2021/11/07 04:03:32;;;;;;;1.55;0.50;;;10.50;99.90;;;;;;6753929;88;20231;-80
2021/11/07 04:13:34;;;;;;;1.10;0.52;;;10.40;99.90;;;;;;6758853;88;20643;-80
2021/11/07 04:23:36;;;;;;;1.20;0.60;;;10.40;99.90;;;;;;6758439;88;20236;-81
2021/11/07 04:33:36;;;;;;;1.67;0.57;;;10.40;99.90;;;;;;6753692;88;20198;-80
2021/11/07 04:43:37;;;;;;;1.25;0.50;;;10.50;99.90;;;;;;6758024;88;20191;-80
2021/11/07 04:53:38;;;;;;;0.85;0.40;;;10.50;99.90;;;;;;6756287;88;20188;-81
2021/11/07 05:03:39;;;;;;;0.85;0.40;;;10.40;99.90;;;;;;6757086;88;20192;-80
2021/11/07 05:13:39;;;;;;;1.20;0.50;;;10.50;99.90;;;;;;6756156;88;20283;-80
2021/11/07 05:23:40;;;;;;;0.73;0.37;;;10.60;99.90;;;;;;6755673;88;20510;-80
2021/11/07 05:33:40;;;;;;;0.82;0.30;;;10.60;99.90;;;;;;6752139;88;20775;-81
2021/11/07 05:43:41;;;;;;;0.80;0.30;;;10.60;99.90;;;;;;6757069;88;20187;-81
2021/11/07 05:53:42;;;;;;;0.82;0.30;;;10.50;99.90;;;;;;6757775;88;20338;-80
2021/11/07 06:03:42;;;;;;;0.77;0.30;;;10.70;99.90;;;;;;6755182;88;20524;-80
2021/11/07 06:13:43;;;;;;;0.73;0.30;;;10.70;99.90;;;;;;6759076;88;20184;-81
2021/11/07 06:23:46;;;;;;;0.95;0.30;;;10.80;99.90;;;;;;6757680;88;20306;-81
2021/11/07 06:33:47;;;;;;;1.30;0.40;;;10.90;99.90;;;;;;6761453;88;20153;-81
2021/11/07 06:43:47;;;;;;;1.67;0.30;;;10.90;99.90;;;;;;6763726;88;20187;-80
2021/11/07 06:53:48;;;;;;;1.73;0.30;;;10.90;99.90;;;;;;6764126;87;20160;-82
2021/11/07 07:03:49;;;;;;;1.05;0.25;;;10.90;99.90;;;;;;6768895;87;20168;-82
2021/11/07 07:14:03;;;;;;;0.68;0.30;;;10.90;99.90;;;;;;6768688;87;20178;-82
2021/11/07 07:24:40;;;;;;;1.02;0.30;;;10.90;99.90;;;;;;6731993;88;20181;-81
2021/11/07 07:34:41;;;;;;;0.80;0.30;;;11.00;99.90;;;;;;6744901;88;20181;-82
2021/11/07 07:44:42;;;;;;;1.55;0.70;;;11.00;99.90;;;;;;6748669;88;20200;-82
2021/11/07 07:54:43;;;;;;;1.75;0.68;;;11.00;99.90;;;;;;6748689;88;20145;-82
2021/11/07 08:04:43;;;;;;;2.87;0.80;;;11.00;99.90;;;;;;6748562;88;20183;-82
2021/11/07 08:14:44;;;;;;;3.10;1.00;;;11.10;99.90;;;;;;6748864;88;20189;-82
2021/11/07 08:24:45;;;;;;;2.50;1.20;;;11.10;99.90;;;;;;6731233;88;20163;-81
2021/11/07 08:34:46;;;;;;;3.97;1.50;;;10.90;99.90;;;;;;6744788;88;20157;-82
2021/11/07 09:05:14;;;;;;;8.65;2.25;;;10.60;99.90;;;;;;6767324;87;20175;-81
2021/11/07 09:15:20;;;;;;;6.07;2.67;;;10.60;99.90;;;;;;6767129;87;20172;-82
2021/11/07 09:25:25;;;;;;;7.85;2.70;;;10.60;99.90;;;;;;6767008;87;20187;-83
2021/11/07 09:45:58;;;;;;;8.68;1.90;;;10.70;99.90;;;;;;6758403;87;20164;-81
2021/11/07 09:55:59;;;;;;;7.60;2.00;;;10.90;99.90;;;;;;6770079;87;20290;-81
2021/11/07 10:06:02;;;;;;;7.20;1.90;;;10.90;99.90;;;;;;6769536;87;20187;-81
2021/11/07 10:16:09;;;;;;;6.20;2.40;;;11.00;99.90;;;;;;6765555;87;20152;-81
2021/11/07 10:26:19;;;;;;;8.25;2.33;;;11.00;99.90;;;;;;6732495;88;20165;-81
2021/11/07 10:57:21;;;;;;;10.57;2.40;;;11.80;99.90;;;;;;6746085;87;20806;-82
2021/11/07 11:07:22;;;;;;;8.82;1.80;;;11.80;99.90;;;;;;6764623;87;20274;-81
2021/11/07 11:17:37;;;;;;;10.30;2.10;;;11.90;99.90;;;;;;6768385;87;20212;-81
2021/11/07 11:58:54;;;;;;;9.13;2.47;;;12.90;99.90;;;;;;6767584;87;20208;-80
2021/11/07 12:09:49;;;;;;;;;;;;;;;;;;;;;
2021/11/07 12:19:44;;;;;;;12.02;2.70;;;12.00;99.90;;;;;;6756446;87;20179;-82
2021/11/07 12:29:45;;;;;;;6.87;2.33;;;11.70;99.90;;;;;;6763278;88;20287;-80
2021/11/07 12:50:07;;;;;;;9.50;2.80;;;11.70;99.90;;;;;;6754458;88;20173;-80
2021/11/07 13:00:49;;;;;;;11.85;2.00;;;15.00;99.90;;;;;;6722367;77;20188;-81
2021/11/07 13:11:03;;;;;;;9.88;2.33;;;16.30;99.90;;;;;;6818980;87;20147;-80
2021/11/07 13:21:24;;;;;;;8.70;2.00;;;15.10;99.90;;;;;;6823968;87;20255;-81
2021/11/07 13:31:27;;;;;;;6.07;1.80;;;13.30;99.90;;;;;;6787718;88;20891;-81
2021/11/07 13:41:28;;;;;;;7.68;1.60;;;13.50;99.90;;;;;;6757789;87;20164;-81
2021/11/07 13:51:35;;;;;;;7.62;1.60;;;13.40;99.90;;;;;;6770430;87;20193;-80
2021/11/07 14:01:35;;;;;;;9.88;1.90;;;12.80;99.90;;;;;;6784143;87;20145;-80
2021/11/07 14:11:39;;;;;;;7.70;1.70;;;12.40;99.90;;;;;;6817067;87;20182;-80
2021/11/07 14:21:42;;;;;;;9.40;2.28;;;12.40;99.90;;;;;;6822991;87;21051;-80
2021/11/07 14:31:57;;;;;;;8.80;2.12;;;12.10;99.90;;;;;;6821859;87;20160;-81
2021/11/07 15:02:55;;;;;;;10.45;2.75;;;11.60;99.90;;;;;;6820829;87;20367;-80
2021/11/07 15:23:41;;;;;;;11.10;1.92;;;11.20;99.90;;;;;;6820160;87;20172;-81
2021/11/07 15:33:46;;;;;;;10.43;2.25;;;10.90;99.90;;;;;;6816688;87;20736;-82
2021/11/07 15:43:48;;;;;;;12.85;2.12;;;10.60;99.90;;;;;;6813193;87;20155;-81
2021/11/07 15:54:06;;;;;;;11.98;2.20;;;10.40;99.90;;;;;;6817791;87;20169;-82
2021/11/07 16:04:46;;;;;;;;;;;;;;;;;;;;;
2021/11/07 16:24:48;;;;;;;14.50;2.12;;;10.20;99.90;;;;;;6746140;88;20223;-80
2021/11/07 16:44:54;;;;;;;12.55;2.10;;;10.10;99.90;;;;;;6761945;87;20151;-79
2021/11/07 16:55:08;;;;;;;10.93;2.33;;;10.10;99.90;;;;;;6819334;87;20231;-80
2021/11/07 17:25:50;;;;;;;13.90;2.25;;;9.80;99.90;;;;;;6808905;87;20163;-79
2021/11/07 17:36:00;;;;;;;9.90;2.28;;;9.70;99.90;;;;;;6819560;87;20151;-80
2021/11/07 17:56:25;;;;;;;16.62;2.78;;;9.40;99.90;;;;;;6819668;87;20210;-80
2021/11/07 18:06:28;;;;;;;12.73;2.40;;;9.40;99.90;;;;;;6821506;87;20159;-80
2021/11/07 18:16:28;;;;;;;15.38;2.65;;;9.40;99.90;;;;;;6801791;87;20265;-80
2021/11/07 18:26:33;;;;;;;18.47;2.80;;;9.40;99.90;;;;;;6801478;87;20877;-80
2021/11/07 18:36:39;;;;;;;19.90;2.83;;;9.40;99.90;;;;;;6801514;87;20479;-79
2021/11/07 18:46:40;;;;;;;18.50;3.03;;;9.30;99.90;;;;;;6801384;87;20177;-80
2021/11/07 19:06:44;;;;;;;16.60;2.80;;;9.10;99.90;;;;;;6764242;88;20207;-79
2021/11/07 19:16:44;;;;;;;17.58;2.75;;;9.00;99.90;;;;;;6775755;88;20341;-79
2021/11/07 19:26:45;;;;;;;17.30;2.80;;;9.00;99.90;;;;;;6770935;88;20219;-79
2021/11/07 19:36:45;;;;;;;15.00;2.85;;;8.90;99.90;;;;;;6775641;88;20511;-80
2021/11/07 19:46:52;;;;;;;11.68;2.20;;;8.80;99.90;;;;;;6776729;88;20276;-79
2021/11/07 19:56:53;;;;;;;15.15;2.50;;;8.80;99.90;;;;;;6777157;87;20184;-81
2021/11/07 20:07:09;;;;;;;17.00;2.50;;;8.60;99.90;;;;;;6774471;88;20216;-81
2021/11/07 20:17:12;;;;;;;14.32;2.55;;;8.60;99.90;;;;;;6775001;88;20659;-78
2021/11/07 20:27:22;;;;;;;10.45;2.42;;;8.70;99.90;;;;;;6775714;88;20288;-81
2021/11/07 20:37:30;;;;;;;11.07;2.47;;;8.70;99.90;;;;;;6777347;88;20257;-81
2021/11/07 21:07:56;;;;;;;17.33;2.90;;;8.60;99.90;;;;;;6772295;88;20205;-78
2021/11/07 21:18:23;;;;;;;13.70;2.60;;;8.50;99.90;;;;;;6764195;88;20193;-78
2021/11/07 21:28:24;;;;;;;18.75;2.70;;;8.40;99.90;;;;;;6753229;88;21013;-79
2021/11/07 21:38:32;;;;;;;21.48;3.08;;;8.40;99.90;;;;;;6767262;88;20836;-81
2021/11/07 21:48:33;;;;;;;15.65;2.70;;;8.40;99.90;;;;;;6730774;88;20184;-80
2021/11/07 21:58:33;;;;;;;17.15;2.95;;;8.50;99.90;;;;;;6730890;88;20235;-77
2021/11/07 22:08:34;;;;;;;13.65;3.65;;;8.60;99.90;;;;;;6744159;88;20217;-78
2021/11/07 22:18:43;;;;;;;14.10;2.97;;;8.70;99.90;;;;;;6745885;88;20199;-78
2021/11/07 22:29:20;;;;;;;;;;;;;;;;;;;;;
2021/11/07 22:39:09;;;;;;;19.87;3.80;;;8.40;99.90;;;;;;6723025;88;20635;-80
2021/11/07 22:49:12;;;;;;;21.60;3.10;;;8.20;99.90;;;;;;6760127;88;20217;-82
2021/11/07 23:09:36;;;;;;;12.07;2.03;;;8.30;99.90;;;;;;6766968;88;20256;-80
2021/11/07 23:19:57;;;;;;;15.45;2.58;;;8.30;99.90;;;;;;6768294;88;20157;-80
2021/11/07 23:29:58;;;;;;;14.87;2.22;;;8.20;99.90;;;;;;6766403;88;20582;-78
2021/11/07 23:40:03;;;;;;;11.52;2.37;;;8.10;99.90;;;;;;6699068;88;20235;-78
